KRFD/RFD METAR and TAF weather

Enter ICAO airport designator
Station Type Date Time Source
KRFD METAR 2021/08/05 04:54 UTC NOAA

KRFD 050454Z 00000KT 9SM CLR 19/16 A3013 RMK AO2 SLP200 T01890161 $


Station Type Date Time Source
KRFD Decoded METAR 2021/08/05 04:54 UTC NOAA

GREATER ROCKFORD AIRPORT, IL, United States (KRFD) 42-12N 89-06W 221M
Aug 05, 2021 - 12:54 AM EDT / 2021.08.05 0454 UTC
Wind: Calm:0
Visibility: 9 mile(s):0
Sky conditions: clear
Temperature: 66.0 F (18.9 C)
Dew Point: 61.0 F (16.1 C)
Relative Humidity: 83%
Pressure (altimeter): 30.13 in. Hg (1020 hPa)
ob: KRFD 050454Z 00000KT 9SM CLR 19/16 A3013 RMK AO2 SLP200 T01890161
cycle: 5

Station Type Date Time Source
KRFD TAF 2021/08/05 03:59 UTC NOAA

TAF
AMD KRFD 050259Z 0503/0524 VRB05KT P6SM SCT060
FM051400 21009KT P6SM SCT200

Example: see airport list